createdAt,value
2022-08-05T00:01:35.686Z,21.60
2022-08-05T00:04:05.164Z,21.60
2022-08-05T00:06:36.447Z,21.60
2022-08-05T00:09:13.220Z,21.50
2022-08-05T00:11:48.388Z,21.50
2022-08-05T00:14:17.397Z,21.50
2022-08-05T00:16:52.908Z,21.40
2022-08-05T00:19:23.313Z,21.40
2022-08-05T00:21:53.993Z,21.40
2022-08-05T00:24:24.611Z,21.40
2022-08-05T00:27:00.305Z,21.38
2022-08-05T00:29:32.959Z,21.30
2022-08-05T00:32:12.499Z,21.30
2022-08-05T00:35:04.465Z,21.26
2022-08-05T00:37:51.240Z,21.20
2022-08-05T00:40:27.987Z,21.20
2022-08-05T00:42:59.654Z,21.20
2022-08-05T00:45:38.380Z,21.12
2022-08-05T00:48:09.342Z,21.10
2022-08-05T00:50:41.366Z,21.10
2022-08-05T00:54:00.206Z,21.08
2022-08-05T00:56:00.432Z,21.00
2022-08-05T00:58:28.222Z,21.00
2022-08-05T01:00:56.476Z,21.00
2022-08-05T01:03:33.346Z,21.00
2022-08-05T01:06:05.352Z,21.00
2022-08-05T01:08:43.094Z,20.90
2022-08-05T01:11:48.284Z,20.90
2022-08-05T01:14:28.459Z,20.90
2022-08-05T01:17:14.423Z,20.88
2022-08-05T01:20:01.378Z,20.80
2022-08-05T01:22:52.458Z,20.80
2022-08-05T01:25:53.339Z,20.80
2022-08-05T01:29:06.963Z,20.80
2022-08-05T01:31:48.657Z,20.78
2022-08-05T01:34:36.231Z,20.70
2022-08-05T01:37:18.142Z,20.70
2022-08-05T01:39:59.187Z,20.70
2022-08-05T01:42:29.835Z,20.70
2022-08-05T01:45:02.209Z,20.68
2022-08-05T01:47:39.692Z,20.60
2022-08-05T01:50:38.252Z,20.60
2022-08-05T01:53:13.166Z,20.60
2022-08-05T01:55:45.246Z,20.60
2022-08-05T01:58:16.904Z,20.60
2022-08-05T02:00:50.843Z,20.60
2022-08-05T02:03:48.950Z,20.52
2022-08-05T02:06:33.661Z,20.50
2022-08-05T02:09:06.780Z,20.50
2022-08-05T02:11:52.668Z,20.50
2022-08-05T02:14:33.397Z,20.50
2022-08-05T02:17:17.065Z,20.46
2022-08-05T02:20:04.556Z,20.40
2022-08-05T02:22:46.758Z,20.42
2022-08-05T02:25:22.268Z,20.40
2022-08-05T02:27:59.204Z,20.40
2022-08-05T02:30:35.207Z,20.40
2022-08-05T02:33:04.903Z,20.40
2022-08-05T02:35:37.631Z,20.40
2022-08-05T02:38:09.509Z,20.40
2022-08-05T02:40:42.270Z,20.40
2022-08-05T02:43:15.475Z,20.38
2022-08-05T02:45:52.555Z,20.30
2022-08-05T02:48:29.226Z,20.30
2022-08-05T02:51:00.692Z,20.30
2022-08-05T02:53:39.079Z,20.30
2022-08-05T02:56:18.631Z,20.32
2022-08-05T02:58:51.377Z,20.30
2022-08-05T03:01:25.160Z,20.30
2022-08-05T03:04:02.598Z,20.30
2022-08-05T03:06:54.783Z,20.30
2022-08-05T03:09:36.220Z,20.30
2022-08-05T03:12:06.862Z,20.30
2022-08-05T03:14:39.054Z,20.30
2022-08-05T03:17:14.212Z,20.30
2022-08-05T03:19:42.391Z,20.30
2022-08-05T03:22:16.760Z,20.30
2022-08-05T03:24:52.087Z,20.30
2022-08-05T03:27:21.317Z,20.30
2022-08-05T03:30:07.838Z,20.30
2022-08-05T03:32:38.340Z,20.30
2022-08-05T03:35:09.017Z,20.30
2022-08-05T03:37:45.961Z,20.30
2022-08-05T03:40:24.304Z,20.28
2022-08-05T03:42:53.009Z,20.30
2022-08-05T03:45:23.269Z,20.30
2022-08-05T03:47:51.866Z,20.30
2022-08-05T03:50:42.678Z,20.30
2022-08-05T03:55:50.143Z,20.30
2022-08-05T03:56:17.301Z,20.30
2022-08-05T03:59:01.569Z,20.32
2022-08-05T04:01:35.301Z,20.40
2022-08-05T04:04:09.146Z,20.40
2022-08-05T04:06:47.956Z,20.40
2022-08-05T04:09:20.430Z,20.40
2022-08-05T04:11:57.139Z,20.40
2022-08-05T04:14:29.891Z,20.40
2022-08-05T04:17:00.775Z,20.48
2022-08-05T04:19:30.415Z,20.50
2022-08-05T04:22:08.391Z,20.56
2022-08-05T04:24:44.043Z,20.60
2022-08-05T04:27:14.028Z,20.60
2022-08-05T04:29:43.215Z,20.68
2022-08-05T04:32:11.214Z,20.70
2022-08-05T04:34:43.044Z,20.74
2022-08-05T04:37:11.525Z,20.80
2022-08-05T04:39:40.651Z,20.90
2022-08-05T04:42:09.332Z,20.90
2022-08-05T04:44:37.160Z,20.90
2022-08-05T04:47:09.599Z,21.00
2022-08-05T04:50:01.553Z,21.10
2022-08-05T04:52:28.260Z,21.10
2022-08-05T04:54:57.223Z,21.20
2022-08-05T04:57:29.308Z,21.30
2022-08-05T05:00:06.628Z,21.30
2022-08-05T05:02:43.160Z,21.40
2022-08-05T05:05:25.860Z,21.46
2022-08-05T05:08:01.613Z,21.50
2022-08-05T05:10:47.314Z,21.56
2022-08-05T05:13:24.197Z,21.66
2022-08-05T05:15:59.475Z,21.70
2022-08-05T05:18:34.231Z,21.80
2022-08-05T05:21:04.132Z,21.90
2022-08-05T05:23:39.041Z,22.00
2022-08-05T05:26:28.027Z,22.20
2022-08-05T05:28:57.071Z,22.30
2022-08-05T05:31:25.184Z,22.46
2022-08-05T05:34:01.912Z,22.60
2022-08-05T05:36:31.955Z,22.70
2022-08-05T05:39:00.110Z,22.80
2022-08-05T05:41:40.802Z,22.90
2022-08-05T05:44:34.494Z,23.20
2022-08-05T05:47:04.369Z,23.50
2022-08-05T05:49:33.078Z,23.82
2022-08-05T05:52:01.542Z,24.16
2022-08-05T05:54:50.341Z,24.40
2022-08-05T05:57:19.953Z,24.60
2022-08-05T05:59:48.802Z,24.70
2022-08-05T06:02:17.195Z,24.90
2022-08-05T06:05:01.248Z,24.94
2022-08-05T06:07:41.688Z,24.90
2022-08-05T06:10:11.848Z,24.90
2022-08-05T06:12:42.210Z,24.90
2022-08-05T06:15:16.185Z,25.00
2022-08-05T06:17:54.761Z,25.00
2022-08-05T06:20:23.132Z,25.20
2022-08-05T06:22:51.117Z,25.56
2022-08-05T06:25:59.251Z,25.84
2022-08-05T06:28:11.033Z,26.60
2022-08-05T06:30:49.109Z,27.40
2022-08-05T06:33:19.058Z,27.60
2022-08-05T06:36:05.727Z,27.80
2022-08-05T06:38:36.697Z,28.00
2022-08-05T06:41:07.744Z,28.56
2022-08-05T06:43:57.903Z,29.60
2022-08-05T06:46:30.296Z,30.30
2022-08-05T06:49:00.853Z,30.10
2022-08-05T06:51:31.355Z,30.52
2022-08-05T06:54:01.861Z,30.50
2022-08-05T06:56:34.519Z,30.24
2022-08-05T06:59:08.430Z,29.90
2022-08-05T07:01:37.327Z,29.50
2022-08-05T07:04:08.876Z,29.10
2022-08-05T07:06:37.051Z,28.70
2022-08-05T07:09:05.376Z,28.40
2022-08-05T07:11:37.288Z,28.14
2022-08-05T07:14:29.284Z,27.90
2022-08-05T07:18:01.163Z,27.70
2022-08-05T07:22:38.768Z,27.40
2022-08-05T07:25:23.486Z,27.40
2022-08-05T07:28:02.259Z,27.40
2022-08-05T07:30:38.499Z,27.40
2022-08-05T07:33:16.897Z,27.30
2022-08-05T07:36:02.371Z,27.30
2022-08-05T07:38:43.586Z,27.20
2022-08-05T07:42:09.337Z,27.20
2022-08-05T07:44:14.464Z,27.20
2022-08-05T07:46:49.581Z,27.20
2022-08-05T07:49:19.700Z,27.20
2022-08-05T07:51:54.017Z,27.20
2022-08-05T07:54:31.305Z,27.30
2022-08-05T07:57:41.334Z,27.30
2022-08-05T07:59:52.047Z,27.30
2022-08-05T08:02:26.560Z,27.30
2022-08-05T08:04:59.480Z,27.30
2022-08-05T08:07:28.967Z,27.30
2022-08-05T08:10:07.816Z,27.40
2022-08-05T08:12:49.730Z,27.40
2022-08-05T08:15:18.360Z,27.40
2022-08-05T08:18:09.909Z,27.40
2022-08-05T08:21:02.918Z,27.40
2022-08-05T08:24:01.970Z,27.42
2022-08-05T08:26:27.025Z,27.50
2022-08-05T08:29:21.998Z,27.50
2022-08-05T08:31:49.253Z,27.50
2022-08-05T08:34:30.693Z,27.54
2022-08-05T08:37:05.181Z,27.60
2022-08-05T08:39:37.687Z,27.60
2022-08-05T08:42:33.706Z,27.62
2022-08-05T08:45:20.709Z,27.70
2022-08-05T08:48:10.510Z,27.80
2022-08-05T08:51:23.114Z,27.80
2022-08-05T08:53:30.437Z,27.90
2022-08-05T08:56:05.784Z,27.98
2022-08-05T08:58:43.112Z,28.00
2022-08-05T09:01:18.258Z,28.00
2022-08-05T09:03:55.194Z,28.10
2022-08-05T09:06:29.741Z,28.18
2022-08-05T09:09:01.140Z,28.20
2022-08-05T09:11:52.076Z,28.20
2022-08-05T09:14:57.860Z,28.20
2022-08-05T09:17:40.156Z,28.20
2022-08-05T09:20:02.551Z,28.30
2022-08-05T09:23:19.873Z,28.30
2022-08-05T09:26:03.194Z,28.30
2022-08-05T09:28:34.604Z,28.30
2022-08-05T09:32:38.742Z,28.38
2022-08-05T09:34:07.426Z,28.32
2022-08-05T09:36:55.083Z,28.40
2022-08-05T09:39:39.099Z,28.40
2022-08-05T09:42:24.452Z,28.40
2022-08-05T09:45:03.272Z,28.50
2022-08-05T09:47:55.002Z,28.50
2022-08-05T09:50:37.513Z,28.60
2022-08-05T09:53:06.150Z,28.64
2022-08-05T09:55:58.313Z,28.70
2022-08-05T09:58:26.299Z,28.70
2022-08-05T10:01:13.475Z,28.76
2022-08-05T10:04:10.071Z,28.80
2022-08-05T10:06:58.888Z,28.80
2022-08-05T10:09:29.818Z,28.90
2022-08-05T10:12:29.966Z,28.90
2022-08-05T10:15:16.916Z,29.00
2022-08-05T10:18:04.060Z,29.00
2022-08-05T10:20:36.400Z,29.00
2022-08-05T10:23:04.699Z,29.10
2022-08-05T10:25:37.032Z,29.10
2022-08-05T10:28:13.339Z,29.20
2022-08-05T10:32:54.654Z,29.20
2022-08-05T10:33:36.169Z,29.20
2022-08-05T10:36:05.213Z,29.20
2022-08-05T10:38:35.883Z,29.28
2022-08-05T10:42:00.842Z,29.30
2022-08-05T10:44:31.328Z,29.30
2022-08-05T10:46:59.056Z,29.32
2022-08-05T10:49:27.790Z,29.30
2022-08-05T10:52:05.419Z,29.30
2022-08-05T10:55:06.891Z,29.30
2022-08-05T10:57:35.865Z,29.40
2022-08-05T11:00:23.036Z,29.50
2022-08-05T11:03:23.133Z,29.50
2022-08-05T11:06:16.055Z,29.60
2022-08-05T11:09:32.026Z,29.70
2022-08-05T11:12:24.398Z,29.70
2022-08-05T11:15:19.326Z,29.80
2022-08-05T11:17:59.992Z,29.80
2022-08-05T11:20:44.607Z,29.90
2022-08-05T11:24:05.437Z,30.00
2022-08-05T11:26:43.445Z,30.10
2022-08-05T11:29:41.005Z,30.10
2022-08-05T11:32:28.120Z,30.10
2022-08-05T11:34:57.909Z,30.20
2022-08-05T11:38:28.947Z,30.20
2022-08-05T11:41:34.757Z,30.20
2022-08-05T11:44:21.605Z,30.26
2022-08-05T11:47:11.067Z,30.30
2022-08-05T11:49:43.350Z,30.30
2022-08-05T11:52:29.465Z,30.30
2022-08-05T11:54:59.536Z,30.34
2022-08-05T11:58:08.536Z,30.40
2022-08-05T12:00:31.288Z,30.50
2022-08-05T12:03:29.328Z,30.50
2022-08-05T12:06:06.140Z,30.60
2022-08-05T12:08:53.313Z,30.66
2022-08-05T12:11:28.467Z,30.80
2022-08-05T12:14:10.089Z,30.90
2022-08-05T12:16:45.491Z,31.00
2022-08-05T12:20:16.772Z,31.10
2022-08-05T12:22:09.580Z,31.10
2022-08-05T12:24:49.560Z,31.20
2022-08-05T12:27:32.621Z,31.26
2022-08-05T12:30:03.587Z,31.30
2022-08-05T12:32:36.160Z,31.46
2022-08-05T12:35:08.235Z,31.60
2022-08-05T12:37:36.160Z,31.68
2022-08-05T12:40:11.224Z,31.80
2022-08-05T12:42:50.496Z,31.88
2022-08-05T12:45:19.563Z,32.00
2022-08-05T12:48:17.178Z,32.10
2022-08-05T12:50:37.831Z,32.10
2022-08-05T12:53:05.767Z,32.10
2022-08-05T12:55:35.949Z,32.10
2022-08-05T12:58:48.882Z,32.10
2022-08-05T13:02:01.160Z,32.10
2022-08-05T13:03:42.109Z,32.20
2022-08-05T13:06:17.184Z,32.22
2022-08-05T13:08:51.536Z,32.30
2022-08-05T13:12:02.258Z,32.40
2022-08-05T13:14:25.052Z,32.56
2022-08-05T13:17:31.889Z,32.72
2022-08-05T13:20:17.245Z,32.90
2022-08-05T13:22:52.973Z,33.00
2022-08-05T13:25:22.247Z,33.10
2022-08-05T13:28:10.679Z,33.20
2022-08-05T13:30:39.104Z,33.20
2022-08-05T13:33:07.556Z,33.20
2022-08-05T13:35:47.637Z,33.30
2022-08-05T13:38:30.730Z,33.50
2022-08-05T13:41:04.059Z,33.70
2022-08-05T13:43:45.582Z,33.92
2022-08-05T13:46:44.027Z,34.30
2022-08-05T13:49:10.271Z,34.78
2022-08-05T13:51:46.362Z,35.38
2022-08-05T13:54:21.004Z,36.26
2022-08-05T13:56:53.620Z,37.52
2022-08-05T13:59:24.267Z,39.18
2022-08-05T14:01:59.031Z,41.36
2022-08-05T14:04:53.272Z,43.38
2022-08-05T14:08:00.537Z,44.98
2022-08-05T14:10:28.660Z,46.48
2022-08-05T14:12:59.915Z,47.06
2022-08-05T14:16:08.646Z,48.70
2022-08-05T14:18:18.575Z,50.48
2022-08-05T14:20:55.011Z,51.82
2022-08-05T14:23:25.862Z,52.44
2022-08-05T14:25:58.921Z,53.26
2022-08-05T14:28:29.311Z,54.10
2022-08-05T14:31:01.531Z,54.32
2022-08-05T14:33:56.729Z,54.80
2022-08-05T14:36:21.457Z,54.70
2022-08-05T14:38:51.483Z,55.20
2022-08-05T14:41:19.642Z,54.96
2022-08-05T14:44:00.145Z,54.56
2022-08-05T14:46:35.311Z,53.96
2022-08-05T14:49:07.359Z,52.02
2022-08-05T14:51:38.293Z,49.82
2022-08-05T14:54:26.414Z,48.06
2022-08-05T14:56:56.739Z,46.04
2022-08-05T14:59:25.058Z,44.24
2022-08-05T15:01:58.336Z,42.76
2022-08-05T15:04:29.030Z,41.60
2022-08-05T15:06:57.350Z,40.54
2022-08-05T15:09:52.510Z,39.54
2022-08-05T15:12:26.923Z,38.62
2022-08-05T15:14:54.950Z,37.88
2022-08-05T15:17:47.133Z,37.18
2022-08-05T15:20:19.085Z,36.62
2022-08-05T15:22:54.919Z,36.06
2022-08-05T15:25:52.772Z,35.50
2022-08-05T15:28:15.465Z,34.88
2022-08-05T15:30:45.750Z,34.38
2022-08-05T15:33:56.903Z,34.00
2022-08-05T15:36:05.694Z,33.64
2022-08-05T15:38:42.113Z,33.36
2022-08-05T15:41:20.694Z,33.10
2022-08-05T15:43:55.328Z,32.80
2022-08-05T15:46:24.826Z,32.60
2022-08-05T15:48:58.598Z,32.50
2022-08-05T15:52:13.001Z,32.36
2022-08-05T15:54:18.697Z,32.30
2022-08-05T15:56:47.509Z,32.26
2022-08-05T15:59:22.275Z,32.20
2022-08-05T16:01:52.427Z,32.10
2022-08-05T16:04:25.783Z,32.00
2022-08-05T16:06:56.994Z,31.90
2022-08-05T16:09:26.053Z,31.70
2022-08-05T16:11:54.372Z,31.60
2022-08-05T16:14:23.591Z,31.58
2022-08-05T16:16:51.465Z,31.50
2022-08-05T16:20:03.552Z,31.40
2022-08-05T16:22:10.580Z,31.30
2022-08-05T16:24:41.810Z,31.30
2022-08-05T16:27:47.443Z,31.20
2022-08-05T16:30:23.287Z,31.10
2022-08-05T16:32:55.276Z,31.10
2022-08-05T16:35:28.478Z,31.02
2022-08-05T16:38:15.644Z,31.00
2022-08-05T16:40:51.894Z,31.00
2022-08-05T16:43:32.078Z,30.90
2022-08-05T16:46:13.101Z,30.90
2022-08-05T16:48:52.646Z,30.84
2022-08-05T16:51:20.760Z,30.80
2022-08-05T16:54:03.853Z,30.70
2022-08-05T16:56:41.811Z,30.62
2022-08-05T16:59:10.444Z,30.60
2022-08-05T17:01:53.576Z,30.56
2022-08-05T17:04:28.126Z,30.50
2022-08-05T17:07:03.475Z,30.50
2022-08-05T17:09:57.306Z,30.40
2022-08-05T17:12:51.883Z,30.30
2022-08-05T17:15:15.472Z,30.30
2022-08-05T17:17:44.392Z,30.20
2022-08-05T17:20:14.621Z,30.20
2022-08-05T17:22:42.907Z,30.16
2022-08-05T17:25:34.129Z,30.10
2022-08-05T17:28:04.087Z,30.10
2022-08-05T17:30:31.968Z,30.00
2022-08-05T17:32:59.903Z,30.00
2022-08-05T17:36:06.951Z,29.98
2022-08-05T17:38:17.524Z,29.90
2022-08-05T17:40:45.555Z,29.90
2022-08-05T17:43:15.928Z,29.80
2022-08-05T17:45:44.446Z,29.80
2022-08-05T17:48:12.700Z,29.70
2022-08-05T17:50:40.800Z,29.70
2022-08-05T17:53:09.525Z,29.64
2022-08-05T17:55:40.036Z,29.60
2022-08-05T17:58:13.216Z,29.58
2022-08-05T18:00:47.657Z,29.50
2022-08-05T18:06:12.063Z,29.40
2022-08-05T18:08:52.096Z,29.40
2022-08-05T18:11:33.245Z,29.30
2022-08-05T18:14:13.198Z,29.30
2022-08-05T18:16:47.053Z,29.20
2022-08-05T18:19:23.229Z,29.20
2022-08-05T18:22:07.824Z,29.10
2022-08-05T18:24:40.193Z,29.00
2022-08-05T18:27:18.137Z,29.00
2022-08-05T18:29:54.389Z,28.90
2022-08-05T18:32:28.398Z,28.88
2022-08-05T18:34:58.507Z,28.80
2022-08-05T18:37:34.038Z,28.80
2022-08-05T18:40:34.071Z,28.70
2022-08-05T18:42:51.204Z,28.68
2022-08-05T18:45:20.144Z,28.60
2022-08-05T18:47:52.907Z,28.58
2022-08-05T18:50:46.165Z,28.50
2022-08-05T18:53:23.005Z,28.40
2022-08-05T18:55:52.979Z,28.40
2022-08-05T18:58:27.125Z,28.30
2022-08-05T19:00:57.356Z,28.20
2022-08-05T19:03:53.148Z,28.20
2022-08-05T19:06:20.068Z,28.10
2022-08-05T19:08:55.864Z,28.02
2022-08-05T19:11:28.392Z,28.00
2022-08-05T19:14:20.051Z,27.90
2022-08-05T19:16:52.990Z,27.90
2022-08-05T19:19:21.415Z,27.80
2022-08-05T19:21:51.546Z,27.78
2022-08-05T19:24:34.879Z,27.70
2022-08-05T19:27:04.448Z,27.70
2022-08-05T19:29:35.793Z,27.60
2022-08-05T19:32:11.436Z,27.60
2022-08-05T19:34:40.491Z,27.50
2022-08-05T19:37:10.307Z,27.50
2022-08-05T19:39:47.740Z,27.40
2022-08-05T19:42:35.803Z,27.40
2022-08-05T19:45:06.566Z,27.30
2022-08-05T19:47:37.515Z,27.30
2022-08-05T19:50:07.826Z,27.20
2022-08-05T19:52:39.896Z,27.20
2022-08-05T19:56:15.472Z,27.10
2022-08-05T19:58:06.825Z,27.10
2022-08-05T20:00:44.774Z,27.00
2022-08-05T20:03:12.687Z,27.00
2022-08-05T20:05:43.275Z,27.00
2022-08-05T20:08:17.762Z,26.90
2022-08-05T20:10:45.560Z,26.90
2022-08-05T20:13:18.461Z,26.80
2022-08-05T20:15:58.222Z,26.80
2022-08-05T20:18:33.941Z,26.78
2022-08-05T20:21:06.570Z,26.70
2022-08-05T20:23:39.552Z,26.70
2022-08-05T20:26:24.847Z,26.68
2022-08-05T20:28:57.470Z,26.60
2022-08-05T20:31:42.208Z,26.60
2022-08-05T20:34:17.375Z,26.60
2022-08-05T20:36:45.954Z,26.60
2022-08-05T20:39:16.369Z,26.50
2022-08-05T20:41:47.684Z,26.50
2022-08-05T20:44:30.583Z,26.44
2022-08-05T20:47:03.171Z,26.40
2022-08-05T20:49:37.956Z,26.40
2022-08-05T20:52:08.848Z,26.32
2022-08-05T20:54:42.891Z,26.30
2022-08-05T20:57:42.610Z,26.30
2022-08-05T21:00:34.968Z,26.30
2022-08-05T21:03:08.111Z,26.20
2022-08-05T21:05:53.615Z,26.20
2022-08-05T21:08:28.115Z,26.20
2022-08-05T21:11:12.604Z,26.20
2022-08-05T21:13:48.175Z,26.20
2022-08-05T21:16:29.581Z,26.10
2022-08-05T21:19:01.146Z,26.10
2022-08-05T21:21:38.970Z,26.10
2022-08-05T21:24:13.528Z,26.10
2022-08-05T21:26:47.366Z,26.04
2022-08-05T21:29:26.603Z,26.00
2022-08-05T21:32:02.523Z,26.00
2022-08-05T21:34:31.576Z,25.90
2022-08-05T21:37:01.077Z,25.90
2022-08-05T21:39:29.872Z,25.90
2022-08-05T21:42:01.626Z,25.82
2022-08-05T21:44:31.813Z,25.80
2022-08-05T21:47:00.549Z,25.80
2022-08-05T21:49:48.030Z,25.80
2022-08-05T21:52:27.609Z,25.70
2022-08-05T21:55:06.017Z,25.70
2022-08-05T21:57:36.353Z,25.70
2022-08-05T22:00:11.856Z,25.60
2022-08-05T22:02:43.746Z,25.60
2022-08-05T22:05:12.939Z,25.50
2022-08-05T22:07:58.095Z,25.50
2022-08-05T22:10:28.336Z,25.46
2022-08-05T22:13:08.892Z,25.40
2022-08-05T22:16:02.461Z,25.40
2022-08-05T22:18:35.666Z,25.30
2022-08-05T22:21:04.238Z,25.30
2022-08-05T22:24:03.007Z,25.22
2022-08-05T22:26:55.222Z,25.20
2022-08-05T22:29:26.575Z,25.20
2022-08-05T22:32:02.875Z,25.20
2022-08-05T22:34:33.477Z,25.10
2022-08-05T22:37:03.946Z,25.10
2022-08-05T22:39:34.616Z,25.00
2022-08-05T22:42:26.122Z,25.00
2022-08-05T22:44:53.523Z,25.00
2022-08-05T22:47:29.556Z,24.90
2022-08-05T22:50:20.556Z,24.90
2022-08-05T22:52:52.454Z,24.90
2022-08-05T22:55:22.762Z,24.80
2022-08-05T22:57:52.939Z,24.80
2022-08-05T23:00:23.550Z,24.80
2022-08-05T23:02:53.614Z,24.70
2022-08-05T23:05:22.585Z,24.70
2022-08-05T23:07:52.106Z,24.70
2022-08-05T23:10:23.696Z,24.62
2022-08-05T23:12:55.041Z,24.60
2022-08-05T23:15:27.023Z,24.60
2022-08-05T23:18:01.967Z,24.50
2022-08-05T23:20:37.525Z,24.50
2022-08-05T23:23:08.374Z,24.50
2022-08-05T23:25:52.962Z,24.40
2022-08-05T23:28:28.564Z,24.40
2022-08-05T23:31:16.683Z,24.40
2022-08-05T23:34:04.794Z,24.30
2022-08-05T23:36:38.602Z,24.30
2022-08-05T23:39:09.400Z,24.24
2022-08-05T23:41:40.947Z,24.20
2022-08-05T23:44:16.750Z,24.20
2022-08-05T23:46:44.791Z,24.12
2022-08-05T23:49:16.756Z,24.10
2022-08-05T23:52:08.763Z,24.10
2022-08-05T23:54:38.568Z,24.06
2022-08-05T23:57:10.126Z,24.00
